createdAt,value
2019-02-27T00:00:11.480Z,102584.57
2019-02-27T00:02:43.364Z,102586.84
2019-02-27T00:05:14.686Z,102582.69
2019-02-27T00:07:45.978Z,102574.19
2019-02-27T00:10:17.431Z,102582.55
2019-02-27T00:12:51.773Z,102577.13
2019-02-27T00:15:42.970Z,102575.29
2019-02-27T00:18:14.425Z,102569.78
2019-02-27T00:20:53.363Z,102568.48
2019-02-27T00:23:24.682Z,102567.38
2019-02-27T00:25:56.001Z,102565.70
2019-02-27T00:28:27.351Z,102557.23
2019-02-27T00:30:58.587Z,102560.62
2019-02-27T00:33:29.838Z,102551.04
2019-02-27T00:36:01.117Z,102557.70
2019-02-27T00:38:32.399Z,102565.75
2019-02-27T00:41:03.684Z,102558.19
2019-02-27T00:43:53.889Z,102560.49
2019-02-27T00:46:46.435Z,102559.17
2019-02-27T00:49:17.338Z,102549.41
2019-02-27T00:51:48.678Z,102546.08
2019-02-27T00:54:20.003Z,102544.03
2019-02-27T00:56:51.446Z,102536.84
2019-02-27T00:59:22.782Z,102526.14
2019-02-27T01:01:54.139Z,102521.33
2019-02-27T01:04:25.451Z,102520.41
2019-02-27T01:06:56.773Z,102523.64
2019-02-27T01:09:28.141Z,102518.77
2019-02-27T01:11:59.458Z,102516.61
2019-02-27T01:14:30.798Z,102519.66
2019-02-27T01:17:02.045Z,102527.08
2019-02-27T01:19:38.504Z,102529.79
2019-02-27T01:22:06.211Z,102528.47
2019-02-27T01:24:37.623Z,102533.17
2019-02-27T01:27:09.067Z,102525.72
2019-02-27T01:29:40.369Z,102519.06
2019-02-27T01:32:11.765Z,102518.81
2019-02-27T01:34:44.435Z,102518.44
2019-02-27T01:37:16.105Z,102518.81
2019-02-27T01:39:47.386Z,102509.47
2019-02-27T01:42:18.684Z,102510.59
2019-02-27T01:44:49.913Z,102506.64
2019-02-27T01:47:22.340Z,102503.90
2019-02-27T01:50:35.064Z,102502.64
2019-02-27T01:53:08.111Z,102498.88
2019-02-27T01:55:39.601Z,102494.91
2019-02-27T01:58:10.938Z,102493.41
2019-02-27T02:00:42.611Z,102491.77
2019-02-27T02:03:14.359Z,102486.45
2019-02-27T02:05:45.633Z,102486.20
2019-02-27T02:08:16.968Z,102479.59
2019-02-27T02:10:48.250Z,102485.28
2019-02-27T02:13:57.995Z,102481.47
2019-02-27T02:17:29.789Z,102476.37
2019-02-27T02:20:44.960Z,102469.16
2019-02-27T02:24:04.935Z,102455.59
2019-02-27T02:28:02.564Z,102450.79
2019-02-27T02:31:32.703Z,102440.47
2019-02-27T02:34:49.542Z,102440.31
2019-02-27T02:38:15.214Z,102431.69
2019-02-27T02:41:46.685Z,102427.05
2019-02-27T02:44:31.946Z,102423.36
2019-02-27T02:48:01.293Z,102427.05
2019-02-27T02:51:18.017Z,102420.86
2019-02-27T02:54:55.097Z,102420.66
2019-02-27T02:58:15.987Z,102414.34
2019-02-27T03:01:04.327Z,102409.39
2019-02-27T03:05:02.363Z,102404.80
2019-02-27T03:08:28.658Z,102402.05
2019-02-27T03:11:54.860Z,102395.67
2019-02-27T03:15:19.839Z,102389.10
2019-02-27T03:19:05.031Z,102390.47
2019-02-27T03:22:47.896Z,102390.80
2019-02-27T03:25:58.387Z,102376.34
2019-02-27T03:29:30.998Z,102371.20
2019-02-27T03:32:54.960Z,102364.27
2019-02-27T03:36:26.322Z,102362.80
2019-02-27T03:39:48.074Z,102356.45
2019-02-27T03:42:49.913Z,102352.94
2019-02-27T03:45:41.681Z,102345.22
2019-02-27T03:49:11.986Z,102347.11
2019-02-27T03:52:13.714Z,102343.08
2019-02-27T03:55:32.860Z,102356.33
2019-02-27T03:58:43.882Z,102347.17
2019-02-27T04:02:31.910Z,102347.83
2019-02-27T04:05:07.124Z,102351.80
2019-02-27T04:08:40.335Z,102341.38
2019-02-27T04:11:09.460Z,102345.41
2019-02-27T04:13:40.868Z,102345.69
2019-02-27T04:16:12.382Z,102340.02
2019-02-27T04:18:40.902Z,102344.12
2019-02-27T04:21:12.616Z,102344.78
2019-02-27T04:23:47.940Z,102350.31
2019-02-27T04:26:19.340Z,102344.87
2019-02-27T04:28:50.020Z,102341.86
2019-02-27T04:31:21.355Z,102340.16
2019-02-27T04:33:52.887Z,102338.10
2019-02-27T04:36:24.300Z,102334.50
2019-02-27T04:38:55.536Z,102333.80
2019-02-27T04:41:27.032Z,102334.23
2019-02-27T04:43:58.374Z,102331.11
2019-02-27T04:46:29.884Z,102334.00
2019-02-27T04:49:03.884Z,102327.55
2019-02-27T04:51:35.610Z,102334.92
2019-02-27T04:54:07.557Z,102331.48
2019-02-27T04:56:39.027Z,102328.81
2019-02-27T04:59:10.365Z,102329.48
2019-02-27T05:01:41.748Z,102325.28
2019-02-27T05:04:13.145Z,102321.63
2019-02-27T05:06:46.853Z,102317.37
2019-02-27T05:09:17.713Z,102317.24
2019-02-27T05:12:08.475Z,102317.55
2019-02-27T05:14:39.759Z,102322.81
2019-02-27T05:17:11.067Z,102321.44
2019-02-27T05:19:42.376Z,102323.48
2019-02-27T05:22:13.554Z,102320.34
2019-02-27T05:24:44.943Z,102316.95
2019-02-27T05:27:16.496Z,102311.95
2019-02-27T05:29:47.799Z,102311.44
2019-02-27T05:32:19.151Z,102305.48
2019-02-27T05:34:50.599Z,102310.39
2019-02-27T05:37:22.070Z,102317.61
2019-02-27T05:39:53.464Z,102314.72
2019-02-27T05:42:24.860Z,102317.14
2019-02-27T05:44:56.753Z,102324.03
2019-02-27T05:47:28.220Z,102315.83
2019-02-27T05:50:00.676Z,102320.09
2019-02-27T05:52:32.985Z,102313.80
2019-02-27T05:55:06.420Z,102311.30
2019-02-27T05:57:37.746Z,102306.13
2019-02-27T06:00:14.204Z,102297.84
2019-02-27T06:02:45.718Z,102299.05
2019-02-27T06:05:17.310Z,102301.88
2019-02-27T06:07:48.657Z,102299.77
2019-02-27T06:10:20.863Z,102299.83
2019-02-27T06:12:53.213Z,102297.30
2019-02-27T06:15:26.100Z,102306.92
2019-02-27T06:18:22.459Z,102297.41
2019-02-27T06:20:52.067Z,102302.37
2019-02-27T06:23:23.289Z,102294.73
2019-02-27T06:25:59.050Z,102282.48
2019-02-27T06:28:27.632Z,102293.66
2019-02-27T06:30:58.964Z,102295.38
2019-02-27T06:33:30.475Z,102296.03
2019-02-27T06:36:01.813Z,102292.03
2019-02-27T06:38:33.131Z,102287.45
2019-02-27T06:41:04.579Z,102278.52
2019-02-27T06:43:35.832Z,102281.59
2019-02-27T06:46:07.117Z,102272.14
2019-02-27T06:48:42.986Z,102280.28
2019-02-27T06:51:11.612Z,102281.88
2019-02-27T06:53:47.916Z,102275.31
2019-02-27T06:56:19.304Z,102279.45
2019-02-27T06:58:50.733Z,102275.83
2019-02-27T07:01:22.103Z,102270.80
2019-02-27T07:03:53.457Z,102269.26
2019-02-27T07:06:24.853Z,102268.11
2019-02-27T07:08:56.123Z,102265.48
2019-02-27T07:11:27.529Z,102266.25
2019-02-27T07:13:58.875Z,102266.12
2019-02-27T07:16:30.186Z,102267.20
2019-02-27T07:19:01.509Z,102269.32
2019-02-27T07:21:33.582Z,102262.42
2019-02-27T07:24:42.814Z,102249.56
2019-02-27T07:27:14.087Z,102242.22
2019-02-27T07:29:45.333Z,102247.66
2019-02-27T07:32:16.650Z,102247.97
2019-02-27T07:34:49.734Z,102246.09
2019-02-27T07:37:20.889Z,102246.84
2019-02-27T07:39:52.267Z,102244.80
2019-02-27T07:42:23.527Z,102236.02
2019-02-27T07:44:54.805Z,102243.08
2019-02-27T07:47:26.138Z,102246.64
2019-02-27T07:49:57.473Z,102243.59
2019-02-27T07:52:32.255Z,102248.39
2019-02-27T07:55:01.665Z,102253.81
2019-02-27T07:57:32.862Z,102254.50
2019-02-27T08:00:04.507Z,102256.19
2019-02-27T08:02:36.220Z,102257.14
2019-02-27T08:05:08.392Z,102258.99
2019-02-27T08:07:39.731Z,102250.18
2019-02-27T08:10:15.137Z,102254.22
2019-02-27T08:12:46.327Z,102251.50
2019-02-27T08:15:18.716Z,102254.00
2019-02-27T08:17:50.054Z,102256.97
2019-02-27T08:20:21.360Z,102257.37
2019-02-27T08:22:55.525Z,102256.55
2019-02-27T08:25:26.823Z,102259.52
2019-02-27T08:27:58.130Z,102264.11
2019-02-27T08:30:38.203Z,102257.32
2019-02-27T08:33:09.514Z,102247.39
2019-02-27T08:35:40.995Z,102251.61
2019-02-27T08:38:12.283Z,102244.17
2019-02-27T08:40:43.633Z,102243.21
2019-02-27T08:43:14.973Z,102236.70
2019-02-27T08:45:46.200Z,102237.70
2019-02-27T08:48:18.116Z,102231.80
2019-02-27T08:50:49.409Z,102223.55
2019-02-27T08:53:26.049Z,102222.25
2019-02-27T08:55:53.623Z,102221.31
2019-02-27T08:58:26.739Z,102220.53
2019-02-27T09:00:58.208Z,102226.61
2019-02-27T09:03:29.663Z,102220.03
2019-02-27T09:06:01.304Z,102213.09
2019-02-27T09:08:32.737Z,102205.77
2019-02-27T09:11:06.542Z,102208.49
2019-02-27T09:13:37.609Z,102209.20
2019-02-27T09:16:08.961Z,102213.34
2019-02-27T09:18:40.294Z,102216.52
2019-02-27T09:21:11.698Z,102209.59
2019-02-27T09:23:45.187Z,102209.02
2019-02-27T09:26:16.638Z,102207.31
2019-02-27T09:28:48.421Z,102206.37
2019-02-27T09:31:19.857Z,102201.20
2019-02-27T09:33:53.326Z,102206.75
2019-02-27T09:36:30.914Z,102214.08
2019-02-27T09:39:02.330Z,102208.80
2019-02-27T09:41:33.977Z,102206.94
2019-02-27T09:44:05.378Z,102211.92
2019-02-27T09:46:36.783Z,102211.22
2019-02-27T09:49:08.706Z,102208.94
2019-02-27T09:51:40.559Z,102212.88
2019-02-27T09:54:13.282Z,102208.38
2019-02-27T09:56:45.023Z,102196.84
2019-02-27T09:59:19.784Z,102204.95
2019-02-27T10:01:51.392Z,102186.36
2019-02-27T10:04:22.933Z,102189.45
2019-02-27T10:06:58.238Z,102186.99
2019-02-27T10:09:29.843Z,102181.58
2019-02-27T10:12:01.289Z,102185.16
2019-02-27T10:14:32.797Z,102185.91
2019-02-27T10:17:06.729Z,102175.14
2019-02-27T10:19:37.554Z,102175.64
2019-02-27T10:22:08.935Z,102171.66
2019-02-27T10:24:40.418Z,102174.61
2019-02-27T10:27:11.854Z,102173.55
2019-02-27T10:29:47.591Z,102167.22
2019-02-27T10:32:17.415Z,102169.13
2019-02-27T10:34:50.995Z,102166.27
2019-02-27T10:37:22.530Z,102168.94
2019-02-27T10:39:53.938Z,102159.80
2019-02-27T10:42:44.477Z,102154.95
2019-02-27T10:45:16.247Z,102154.28
2019-02-27T10:47:47.795Z,102149.48
2019-02-27T10:50:19.348Z,102142.81
2019-02-27T10:52:50.850Z,102142.65
2019-02-27T10:55:22.576Z,102143.02
2019-02-27T10:57:54.163Z,102135.09
2019-02-27T11:00:30.373Z,102133.66
2019-02-27T11:03:02.085Z,102136.33
2019-02-27T11:05:34.590Z,102133.62
2019-02-27T11:08:10.293Z,102126.56
2019-02-27T11:10:41.673Z,102127.06
2019-02-27T11:13:13.555Z,102124.14
2019-02-27T11:15:45.567Z,102116.61
2019-02-27T11:18:17.060Z,102117.30
2019-02-27T11:20:48.743Z,102111.62
2019-02-27T11:23:20.113Z,102102.88
2019-02-27T11:25:56.530Z,102095.16
2019-02-27T11:28:24.338Z,102090.12
2019-02-27T11:30:55.862Z,102084.76
2019-02-27T11:33:27.158Z,102090.30
2019-02-27T11:35:58.504Z,102090.97
2019-02-27T11:38:29.791Z,102089.80
2019-02-27T11:41:01.129Z,102086.62
2019-02-27T11:43:32.681Z,102074.66
2019-02-27T11:46:07.243Z,102065.08
2019-02-27T11:48:38.666Z,102064.20
2019-02-27T11:51:10.025Z,102060.83
2019-02-27T11:53:41.478Z,102055.28
2019-02-27T11:56:13.032Z,102052.42
2019-02-27T11:58:44.348Z,102048.22
2019-02-27T12:01:15.651Z,102044.03
2019-02-27T12:03:46.995Z,102038.11
2019-02-27T12:06:18.437Z,102024.70
2019-02-27T12:08:49.882Z,102016.21
2019-02-27T12:11:21.468Z,102015.92
2019-02-27T12:13:54.751Z,102015.56
2019-02-27T12:16:25.857Z,102000.79
2019-02-27T12:18:57.207Z,101998.16
2019-02-27T12:21:28.643Z,101985.83
2019-02-27T12:23:59.978Z,101982.35
2019-02-27T12:26:31.343Z,101977.70
2019-02-27T12:29:02.636Z,101970.95
2019-02-27T12:31:34.361Z,101975.03
2019-02-27T12:34:06.122Z,101972.91
2019-02-27T12:36:37.430Z,101957.36
2019-02-27T12:39:09.596Z,101962.63
2019-02-27T12:41:40.941Z,101953.67
2019-02-27T12:44:12.399Z,101949.16
2019-02-27T12:46:43.953Z,101945.02
2019-02-27T12:49:16.931Z,101938.87
2019-02-27T12:51:48.337Z,101936.61
2019-02-27T12:54:19.759Z,101927.14
2019-02-27T12:57:10.149Z,101924.59
2019-02-27T12:59:41.590Z,101924.73
2019-02-27T13:02:12.996Z,101918.94
2019-02-27T13:04:44.484Z,101913.87
2019-02-27T13:07:16.034Z,101911.82
2019-02-27T13:09:47.362Z,101909.97
2019-02-27T13:12:18.806Z,101917.79
2019-02-27T13:14:50.091Z,101905.39
2019-02-27T13:17:22.260Z,101906.78
2019-02-27T13:19:53.664Z,101905.97
2019-02-27T13:22:26.281Z,101894.30
2019-02-27T13:24:58.112Z,101893.55
2019-02-27T13:27:29.400Z,101893.05
2019-02-27T13:30:22.295Z,101880.17
2019-02-27T13:34:05.442Z,101881.30
2019-02-27T13:48:54.253Z,101856.46
2019-02-27T13:51:25.568Z,101844.94
2019-02-27T13:54:00.205Z,101839.87
2019-02-27T13:56:29.977Z,101831.11
2019-02-27T13:59:20.478Z,101826.48
2019-02-27T14:01:51.954Z,101822.20
2019-02-27T14:04:23.392Z,101827.22
2019-02-27T14:06:54.816Z,101825.41
2019-02-27T14:09:26.230Z,101820.16
2019-02-27T14:11:58.710Z,101805.15
2019-02-27T14:14:30.656Z,101803.37
2019-02-27T14:17:01.943Z,101802.20
2019-02-27T14:19:33.311Z,101796.25
2019-02-27T14:22:07.159Z,101794.33
2019-02-27T14:24:42.168Z,101792.36
2019-02-27T14:27:14.619Z,101788.87
2019-02-27T14:29:53.439Z,101777.58
2019-02-27T14:32:25.082Z,101778.58
2019-02-27T14:34:58.034Z,101775.24
2019-02-27T14:37:29.402Z,101776.59
2019-02-27T14:40:03.884Z,101763.74
2019-02-27T14:42:33.597Z,101767.14
2019-02-27T14:45:06.416Z,101765.06
2019-02-27T14:47:38.879Z,101757.61
2019-02-27T14:50:13.983Z,101759.98
2019-02-27T14:52:45.797Z,101758.17
2019-02-27T14:55:18.249Z,101756.20
2019-02-27T14:57:51.354Z,101756.69
2019-02-27T15:00:29.073Z,101748.28
2019-02-27T15:03:22.457Z,101747.72
2019-02-27T15:05:54.237Z,101745.05
2019-02-27T15:08:26.040Z,101740.58
2019-02-27T15:10:57.311Z,101739.09
2019-02-27T15:13:28.996Z,101730.92
2019-02-27T15:16:00.340Z,101732.09
2019-02-27T15:18:31.777Z,101721.35
2019-02-27T15:21:03.168Z,101730.91
2019-02-27T15:23:34.526Z,101726.21
2019-02-27T15:26:05.904Z,101722.04
2019-02-27T15:28:37.263Z,101725.91
2019-02-27T15:31:08.833Z,101713.94
2019-02-27T15:33:45.619Z,101703.75
2019-02-27T15:36:17.004Z,101707.91
2019-02-27T15:38:48.708Z,101699.10
2019-02-27T15:41:20.251Z,101694.93
2019-02-27T15:43:59.755Z,101681.06
2019-02-27T15:46:24.528Z,101681.33
2019-02-27T15:48:55.865Z,101679.31
2019-02-27T15:51:28.469Z,101667.91
2019-02-27T15:54:00.124Z,101670.59
2019-02-27T15:56:31.621Z,101662.14
2019-02-27T15:59:06.219Z,101663.49
2019-02-27T16:01:35.794Z,101660.44
2019-02-27T16:04:07.486Z,101662.19
2019-02-27T16:06:39.902Z,101660.16
2019-02-27T16:09:12.377Z,101656.90
2019-02-27T16:11:43.926Z,101654.26
2019-02-27T16:14:15.195Z,101649.16
2019-02-27T16:16:47.628Z,101645.55
2019-02-27T16:19:20.281Z,101637.69
2019-02-27T16:21:56.832Z,101634.36
2019-02-27T16:24:24.842Z,101631.88
2019-02-27T16:27:00.871Z,101631.78
2019-02-27T16:29:31.084Z,101627.35
2019-02-27T16:32:02.403Z,101620.53
2019-02-27T16:34:34.134Z,101619.72
2019-02-27T16:37:05.841Z,101616.52
2019-02-27T16:39:41.391Z,101613.72
2019-02-27T16:42:10.615Z,101613.57
2019-02-27T16:44:42.128Z,101615.81
2019-02-27T16:47:15.494Z,101606.81
2019-02-27T16:49:47.272Z,101602.41
2019-02-27T16:52:19.643Z,101600.63
2019-02-27T16:54:51.231Z,101597.67
2019-02-27T16:57:24.496Z,101600.34
2019-02-27T16:59:56.378Z,101599.14
2019-02-27T17:02:27.769Z,101599.65
2019-02-27T17:04:59.206Z,101600.28
2019-02-27T17:07:34.086Z,101597.56
2019-02-27T17:10:07.393Z,101593.67
2019-02-27T17:12:40.873Z,101601.83
2019-02-27T17:15:11.955Z,101596.42
2019-02-27T17:18:03.457Z,101595.28
2019-02-27T17:20:34.872Z,101597.48
2019-02-27T17:23:10.374Z,101596.05
2019-02-27T17:25:39.544Z,101590.64
2019-02-27T17:28:11.199Z,101589.27
2019-02-27T17:30:42.691Z,101584.66
2019-02-27T17:33:15.784Z,101586.03
2019-02-27T17:35:47.262Z,101581.04
2019-02-27T17:38:19.211Z,101582.14
2019-02-27T17:40:52.465Z,101582.67
2019-02-27T17:43:28.563Z,101574.74
2019-02-27T17:46:01.487Z,101582.22
2019-02-27T17:48:33.108Z,101571.66
2019-02-27T17:51:06.474Z,101572.14
2019-02-27T17:53:37.478Z,101568.39
2019-02-27T17:56:25.906Z,101568.00
2019-02-27T17:59:08.566Z,101563.28
2019-02-27T18:01:46.998Z,101558.03
2019-02-27T18:04:22.918Z,101559.48
2019-02-27T18:07:00.435Z,101554.78
2019-02-27T18:09:30.552Z,101552.64
2019-02-27T18:12:01.808Z,101551.95
2019-02-27T18:14:33.211Z,101546.13
2019-02-27T18:17:07.543Z,101541.00
2019-02-27T18:19:39.050Z,101537.01
2019-02-27T18:22:14.015Z,101537.72
2019-02-27T18:24:43.530Z,101535.63
2019-02-27T18:27:15.086Z,101528.90
2019-02-27T18:29:46.492Z,101526.31
2019-02-27T18:32:19.510Z,101525.69
2019-02-27T18:34:54.225Z,101532.75
2019-02-27T18:37:23.821Z,101525.64
2019-02-27T18:39:55.121Z,101527.58
2019-02-27T18:42:26.422Z,101522.69
2019-02-27T18:44:57.809Z,101532.81
2019-02-27T18:47:29.126Z,101530.08
2019-02-27T18:50:00.471Z,101519.19
2019-02-27T18:52:31.808Z,101521.28
2019-02-27T18:55:06.903Z,101512.48
2019-02-27T18:57:45.665Z,101514.56
2019-02-27T19:00:21.142Z,101510.28
2019-02-27T19:02:53.905Z,101504.24
2019-02-27T19:05:25.323Z,101503.25
2019-02-27T19:07:56.934Z,101493.80
2019-02-27T19:10:28.473Z,101491.22
2019-02-27T19:13:00.974Z,101495.33
2019-02-27T19:15:37.011Z,101485.86
2019-02-27T19:18:08.944Z,101486.02
2019-02-27T19:20:40.755Z,101483.55
2019-02-27T19:23:17.196Z,101474.92
2019-02-27T19:25:45.792Z,101479.71
2019-02-27T19:28:17.396Z,101479.41
2019-02-27T19:30:48.815Z,101479.03
2019-02-27T19:33:20.504Z,101476.09
2019-02-27T19:35:55.843Z,101477.84
2019-02-27T19:38:25.974Z,101472.98
2019-02-27T19:41:01.308Z,101472.09
2019-02-27T19:43:35.343Z,101478.95
2019-02-27T19:46:12.723Z,101475.09
2019-02-27T19:48:46.050Z,101468.84
2019-02-27T19:51:20.199Z,101459.65
2019-02-27T19:53:53.248Z,101466.78
2019-02-27T19:56:24.943Z,101460.91
2019-02-27T19:58:56.601Z,101462.68
2019-02-27T20:01:28.474Z,101463.03
2019-02-27T20:04:03.019Z,101458.06
2019-02-27T20:06:38.906Z,101466.78
2019-02-27T20:09:12.985Z,101456.48
2019-02-27T20:11:45.494Z,101464.06
2019-02-27T20:14:19.337Z,101449.88
2019-02-27T20:16:55.218Z,101456.29
2019-02-27T20:19:28.978Z,101455.53
2019-02-27T20:22:00.321Z,101454.52
2019-02-27T20:24:32.415Z,101449.05
2019-02-27T20:27:05.010Z,101445.22
2019-02-27T20:29:40.658Z,101440.22
2019-02-27T20:32:11.143Z,101441.13
2019-02-27T20:34:45.756Z,101443.61
2019-02-27T20:37:17.350Z,101441.81
2019-02-27T20:39:48.870Z,101440.23
2019-02-27T20:42:22.158Z,101439.11
2019-02-27T20:44:59.565Z,101427.50
2019-02-27T20:47:30.981Z,101426.08
2019-02-27T20:50:02.365Z,101425.68
2019-02-27T20:52:36.425Z,101422.02
2019-02-27T20:55:08.057Z,101423.22
2019-02-27T20:57:39.530Z,101413.85
2019-02-27T21:00:15.591Z,101414.83
2019-02-27T21:02:46.978Z,101415.58
2019-02-27T21:05:18.453Z,101409.98
2019-02-27T21:07:49.826Z,101416.09
2019-02-27T21:10:22.912Z,101410.34
2019-02-27T21:12:54.516Z,101407.86
2019-02-27T21:15:26.198Z,101404.22
2019-02-27T21:17:58.496Z,101406.34
2019-02-27T21:20:30.502Z,101413.52
2019-02-27T21:23:01.954Z,101408.50
2019-02-27T21:25:35.208Z,101412.14
2019-02-27T21:28:08.085Z,101408.34
2019-02-27T21:30:43.031Z,101407.19
2019-02-27T21:33:14.420Z,101411.14
2019-02-27T21:35:46.012Z,101411.22
2019-02-27T21:38:17.411Z,101413.96
2019-02-27T21:40:49.031Z,101413.48
2019-02-27T21:43:25.715Z,101409.69
2019-02-27T21:45:56.951Z,101407.05
2019-02-27T21:48:28.517Z,101403.55
2019-02-27T21:51:00.104Z,101404.36
2019-02-27T21:53:31.451Z,101407.08
2019-02-27T21:56:02.863Z,101405.23
2019-02-27T21:58:34.304Z,101396.46
2019-02-27T22:01:05.655Z,101403.63
2019-02-27T22:03:38.396Z,101404.78
2019-02-27T22:06:10.058Z,101409.30
2019-02-27T22:08:44.578Z,101404.22
2019-02-27T22:11:16.041Z,101399.27
2019-02-27T22:13:47.445Z,101397.24
2019-02-27T22:16:20.536Z,101397.62
2019-02-27T22:18:51.845Z,101396.73
2019-02-27T22:21:25.880Z,101387.62
2019-02-27T22:23:57.335Z,101392.48
2019-02-27T22:26:28.603Z,101394.16
2019-02-27T22:28:59.917Z,101392.03
2019-02-27T22:31:31.408Z,101395.91
2019-02-27T22:34:02.650Z,101392.35
2019-02-27T22:36:34.009Z,101390.13
2019-02-27T22:39:05.562Z,101389.56
2019-02-27T22:41:37.065Z,101389.91
2019-02-27T22:44:08.619Z,101385.86
2019-02-27T22:46:40.104Z,101380.00
2019-02-27T22:49:11.385Z,101373.52
2019-02-27T22:51:44.867Z,101374.61
2019-02-27T22:54:15.706Z,101378.47
2019-02-27T22:56:50.076Z,101369.13
2019-02-27T22:59:20.098Z,101368.55
2019-02-27T23:01:54.941Z,101366.88
2019-02-27T23:04:29.981Z,101366.73
2019-02-27T23:07:00.003Z,101361.36
2019-02-27T23:09:31.690Z,101361.36
2019-02-27T23:12:03.194Z,101363.55
2019-02-27T23:14:34.602Z,101363.05
2019-02-27T23:17:09.088Z,101359.17
2019-02-27T23:19:40.616Z,101356.98
2019-02-27T23:22:11.920Z,101353.55
2019-02-27T23:24:43.879Z,101350.77
2019-02-27T23:27:15.987Z,101351.63
2019-02-27T23:29:47.309Z,101354.77
2019-02-27T23:32:18.820Z,101350.82
2019-02-27T23:34:50.211Z,101352.75
2019-02-27T23:37:21.571Z,101343.61
2019-02-27T23:39:53.227Z,101348.98
2019-02-27T23:42:27.924Z,101352.10
2019-02-27T23:44:57.579Z,101350.30
2019-02-27T23:47:29.361Z,101348.98
2019-02-27T23:50:02.248Z,101346.94
2019-02-27T23:52:33.547Z,101346.94
2019-02-27T23:55:07.138Z,101341.98
2019-02-27T23:57:37.999Z,101338.50
